createdAt,value
2018-10-06T00:00:16.387Z,100844.16
2018-10-06T00:02:45.340Z,100840.18
2018-10-06T00:05:14.471Z,100838.25
2018-10-06T00:07:43.534Z,100839.45
2018-10-06T00:10:12.608Z,100832.67
2018-10-06T00:12:41.513Z,100839.84
2018-10-06T00:15:10.936Z,100837.79
2018-10-06T00:17:39.888Z,100835.09
2018-10-06T00:20:09.723Z,100839.57
2018-10-06T00:22:38.896Z,100836.36
2018-10-06T00:25:08.391Z,100838.36
2018-10-06T00:27:37.316Z,100835.88
2018-10-06T00:30:06.948Z,100830.88
2018-10-06T00:32:35.893Z,100831.92
2018-10-06T00:35:05.033Z,100830.81
2018-10-06T00:37:34.400Z,100830.83
2018-10-06T00:40:03.365Z,100834.31
2018-10-06T00:42:32.496Z,100834.27
2018-10-06T00:45:01.976Z,100838.23
2018-10-06T00:47:31.071Z,100836.95
2018-10-06T00:50:00.152Z,100835.66
2018-10-06T00:52:29.334Z,100836.09
2018-10-06T00:54:58.453Z,100837.41
2018-10-06T00:57:27.499Z,100837.20
2018-10-06T00:59:56.873Z,100838.98
2018-10-06T01:02:25.725Z,100839.95
2018-10-06T01:04:54.702Z,100835.05
2018-10-06T01:07:24.546Z,100832.99
2018-10-06T01:09:53.479Z,100831.67
2018-10-06T01:12:22.399Z,100831.45
2018-10-06T01:14:51.883Z,100827.95
2018-10-06T01:17:20.973Z,100835.87
2018-10-06T01:19:50.026Z,100831.91
2018-10-06T01:22:19.369Z,100832.92
2018-10-06T01:24:48.385Z,100837.77
2018-10-06T01:27:17.439Z,100839.59
2018-10-06T01:29:46.790Z,100840.84
2018-10-06T01:32:15.716Z,100844.37
2018-10-06T01:34:44.649Z,100837.29
2018-10-06T01:37:13.770Z,100847.00
2018-10-06T01:39:42.871Z,100842.90
2018-10-06T01:42:13.240Z,100849.21
2018-10-06T01:44:42.577Z,100848.56
2018-10-06T01:47:11.625Z,100848.25
2018-10-06T01:49:40.668Z,100842.30
2018-10-06T01:52:10.067Z,100848.66
2018-10-06T01:54:39.313Z,100848.31
2018-10-06T01:57:08.331Z,100849.38
2018-10-06T01:59:37.424Z,100842.35
2018-10-06T02:02:06.892Z,100845.86
2018-10-06T02:04:35.784Z,100849.53
2018-10-06T02:07:05.404Z,100850.22
2018-10-06T02:09:34.383Z,100848.63
2018-10-06T02:12:03.478Z,100846.56
2018-10-06T02:14:32.903Z,100846.30
2018-10-06T02:17:01.862Z,100846.00
2018-10-06T02:19:30.924Z,100843.66
2018-10-06T02:22:00.192Z,100845.05
2018-10-06T02:31:14.377Z,100836.45
2018-10-06T02:33:43.268Z,100837.73
2018-10-06T02:36:12.169Z,100836.30
2018-10-06T02:38:41.127Z,100834.98
2018-10-06T02:41:10.187Z,100837.27
2018-10-06T02:43:39.385Z,100830.23
2018-10-06T02:46:08.717Z,100826.22
2018-10-06T02:48:37.734Z,100829.05
2018-10-06T02:51:06.891Z,100827.84
2018-10-06T02:53:36.193Z,100824.34
2018-10-06T02:56:05.190Z,100823.79
2018-10-06T02:58:34.226Z,100817.60
2018-10-06T03:01:03.481Z,100822.52
2018-10-06T03:03:32.409Z,100822.66
2018-10-06T03:06:01.250Z,100820.89
2018-10-06T03:08:30.759Z,100824.70
2018-10-06T03:10:59.839Z,100827.44
2018-10-06T03:13:28.713Z,100819.52
2018-10-06T03:15:58.438Z,100821.95
2018-10-06T03:18:27.393Z,100819.05
2018-10-06T03:20:56.569Z,100821.55
2018-10-06T03:23:25.720Z,100823.32
2018-10-06T03:25:54.790Z,100825.09
2018-10-06T03:28:23.777Z,100821.75
2018-10-06T03:30:53.214Z,100825.08
2018-10-06T03:33:22.210Z,100831.16
2018-10-06T03:35:51.270Z,100820.81
2018-10-06T03:38:21.105Z,100823.49
2018-10-06T03:40:50.037Z,100823.99
2018-10-06T03:43:19.029Z,100818.78
2018-10-06T03:45:48.031Z,100818.46
2018-10-06T03:48:17.203Z,100814.96
2018-10-06T03:50:46.275Z,100819.46
2018-10-06T03:53:15.371Z,100811.14
2018-10-06T03:55:44.468Z,100811.42
2018-10-06T03:58:13.421Z,100810.12
2018-10-06T04:00:42.719Z,100810.34
2018-10-06T04:03:11.751Z,100808.52
2018-10-06T04:05:41.015Z,100810.58
2018-10-06T04:08:10.416Z,100811.16
2018-10-06T04:10:39.475Z,100814.84
2018-10-06T04:13:09.098Z,100804.44
2018-10-06T04:15:38.273Z,100807.08
2018-10-06T04:18:07.534Z,100811.38
2018-10-06T04:20:36.542Z,100803.47
2018-10-06T04:23:05.837Z,100806.17
2018-10-06T04:25:34.732Z,100809.97
2018-10-06T04:28:03.876Z,100811.20
2018-10-06T04:30:32.963Z,100816.06
2018-10-06T04:33:02.047Z,100813.47
2018-10-06T04:35:31.131Z,100821.52
2018-10-06T04:38:00.353Z,100813.06
2018-10-06T04:40:29.345Z,100819.83
2018-10-06T04:42:58.327Z,100814.83
2018-10-06T04:45:27.477Z,100811.02
2018-10-06T04:47:56.579Z,100809.61
2018-10-06T04:50:25.694Z,100810.52
2018-10-06T04:52:55.106Z,100816.20
2018-10-06T04:55:23.982Z,100813.93
2018-10-06T04:57:53.044Z,100821.19
2018-10-06T05:00:22.422Z,100820.55
2018-10-06T05:02:51.426Z,100829.35
2018-10-06T05:05:20.488Z,100829.35
2018-10-06T05:07:50.074Z,100831.14
2018-10-06T05:10:19.016Z,100832.96
2018-10-06T05:12:48.189Z,100836.45
2018-10-06T05:15:17.537Z,100830.48
2018-10-06T05:17:46.545Z,100832.05
2018-10-06T05:20:15.561Z,100832.50
2018-10-06T05:22:44.622Z,100829.87
2018-10-06T05:25:13.530Z,100835.86
2018-10-06T05:27:42.486Z,100834.89
2018-10-06T05:30:11.617Z,100831.38
2018-10-06T05:32:40.784Z,100833.87
2018-10-06T05:35:09.758Z,100837.22
2018-10-06T05:37:38.930Z,100833.02
2018-10-06T05:40:08.019Z,100837.24
2018-10-06T05:42:37.112Z,100838.25
2018-10-06T05:45:06.264Z,100836.66
2018-10-06T05:47:36.345Z,100837.31
2018-10-06T05:50:06.225Z,100837.59
2018-10-06T05:52:35.364Z,100836.17
2018-10-06T05:55:04.403Z,100842.64
2018-10-06T05:57:33.464Z,100839.14
2018-10-06T06:00:02.585Z,100841.06
2018-10-06T06:02:31.695Z,100833.82
2018-10-06T06:05:00.966Z,100834.39
2018-10-06T06:07:30.194Z,100835.07
2018-10-06T06:09:59.668Z,100831.34
2018-10-06T06:12:28.533Z,100840.65
2018-10-06T06:14:57.842Z,100836.23
2018-10-06T06:17:27.126Z,100835.98
2018-10-06T06:19:56.209Z,100839.75
2018-10-06T06:29:10.232Z,100847.05
2018-10-06T06:31:39.370Z,100846.20
2018-10-06T06:34:08.471Z,100847.13
2018-10-06T06:36:37.865Z,100847.48
2018-10-06T06:39:08.074Z,100842.59
2018-10-06T06:41:37.684Z,100847.02
2018-10-06T06:44:06.688Z,100839.94
2018-10-06T06:46:35.769Z,100835.28
2018-10-06T06:49:05.381Z,100837.31
2018-10-06T06:51:34.421Z,100844.41
2018-10-06T06:54:03.421Z,100842.17
2018-10-06T06:56:32.584Z,100833.66
2018-10-06T06:59:01.593Z,100837.64
2018-10-06T07:01:30.461Z,100832.53
2018-10-06T07:03:59.735Z,100827.35
2018-10-06T07:06:28.989Z,100840.51
2018-10-06T07:08:58.240Z,100835.66
2018-10-06T07:11:27.588Z,100834.73
2018-10-06T07:13:56.587Z,100833.13
2018-10-06T07:16:25.724Z,100837.73
2018-10-06T07:18:55.052Z,100831.10
2018-10-06T07:21:24.149Z,100837.66
2018-10-06T07:23:53.966Z,100842.04
2018-10-06T07:26:23.281Z,100838.19
2018-10-06T07:28:54.479Z,100836.42
2018-10-06T07:31:25.016Z,100832.86
2018-10-06T07:33:54.421Z,100841.59
2018-10-06T07:43:09.012Z,100823.33
2018-10-06T07:45:38.141Z,100821.19
2018-10-06T07:48:07.229Z,100822.59
2018-10-06T07:50:36.342Z,100815.39
2018-10-06T07:53:05.347Z,100815.39
2018-10-06T07:55:34.224Z,100808.96
2018-10-06T07:58:03.571Z,100813.36
2018-10-06T08:00:32.728Z,100800.07
2018-10-06T08:03:01.866Z,100795.55
2018-10-06T08:05:31.428Z,100798.98
2018-10-06T08:08:00.448Z,100791.88
2018-10-06T08:10:29.516Z,100789.21
2018-10-06T08:12:58.852Z,100793.34
2018-10-06T08:15:28.137Z,100784.69
2018-10-06T08:17:57.191Z,100777.47
2018-10-06T08:20:27.327Z,100779.66
2018-10-06T08:22:56.395Z,100782.55
2018-10-06T08:25:25.438Z,100770.73
2018-10-06T08:27:54.867Z,100764.45
2018-10-06T08:30:24.045Z,100760.55
2018-10-06T08:32:53.124Z,100754.45
2018-10-06T08:35:22.279Z,100766.91
2018-10-06T08:37:51.392Z,100750.08
2018-10-06T08:40:20.521Z,100745.79
2018-10-06T08:42:49.976Z,100750.05
2018-10-06T08:45:19.220Z,100744.22
2018-10-06T08:47:48.347Z,100745.11
2018-10-06T08:50:17.736Z,100735.44
2018-10-06T08:52:46.868Z,100738.81
2018-10-06T08:55:16.084Z,100736.29
2018-10-06T08:57:45.366Z,100721.82
2018-10-06T09:00:14.404Z,100724.24
2018-10-06T09:02:43.403Z,100720.96
2018-10-06T09:05:12.639Z,100718.73
2018-10-06T09:07:41.881Z,100715.16
2018-10-06T09:10:11.809Z,100708.27
2018-10-06T09:12:41.703Z,100707.02
2018-10-06T09:15:10.897Z,100698.27
2018-10-06T09:17:39.971Z,100699.34
2018-10-06T09:20:09.003Z,100701.28
2018-10-06T09:22:38.129Z,100692.74
2018-10-06T09:25:07.545Z,100689.70
2018-10-06T09:27:36.797Z,100683.48
2018-10-06T09:30:05.817Z,100681.78
2018-10-06T09:32:34.900Z,100677.03
2018-10-06T09:35:04.645Z,100671.88
2018-10-06T09:37:33.680Z,100669.00
2018-10-06T09:40:02.711Z,100659.85
2018-10-06T09:42:31.889Z,100657.25
2018-10-06T09:45:00.877Z,100643.91
2018-10-06T09:47:29.991Z,100640.65
2018-10-06T09:49:59.404Z,100639.84
2018-10-06T09:52:28.462Z,100628.23
2018-10-06T09:54:57.692Z,100632.78
2018-10-06T09:57:27.023Z,100628.14
2018-10-06T09:59:56.001Z,100624.55
2018-10-06T10:02:30.096Z,100619.14
2018-10-06T10:05:04.107Z,100612.89
2018-10-06T10:07:35.219Z,100600.64
2018-10-06T10:10:04.952Z,100592.75
2018-10-06T10:12:33.930Z,100590.30
2018-10-06T10:15:03.554Z,100585.38
2018-10-06T10:17:32.738Z,100585.83
2018-10-06T10:20:01.589Z,100583.13
2018-10-06T10:22:31.046Z,100573.31
2018-10-06T10:24:59.777Z,100571.80
2018-10-06T10:27:28.724Z,100570.40
2018-10-06T10:29:57.825Z,100567.09
2018-10-06T10:32:26.742Z,100559.44
2018-10-06T10:34:55.803Z,100552.13
2018-10-06T10:37:25.076Z,100542.07
2018-10-06T10:39:54.016Z,100533.68
2018-10-06T10:42:23.106Z,100533.16
2018-10-06T10:44:51.981Z,100526.78
2018-10-06T10:47:20.991Z,100519.95
2018-10-06T10:49:49.913Z,100519.09
2018-10-06T10:52:19.234Z,100511.41
2018-10-06T10:54:48.292Z,100506.51
2018-10-06T10:57:17.480Z,100493.44
2018-10-06T10:59:47.212Z,100489.81
2018-10-06T11:02:16.095Z,100483.95
2018-10-06T11:04:45.268Z,100471.31
2018-10-06T11:07:14.594Z,100473.92
2018-10-06T11:09:43.587Z,100473.42
2018-10-06T11:12:12.863Z,100475.44
2018-10-06T11:14:41.982Z,100474.80
2018-10-06T11:17:11.053Z,100467.61
2018-10-06T11:19:40.195Z,100460.68
2018-10-06T11:22:09.752Z,100455.62
2018-10-06T11:24:38.837Z,100452.20
2018-10-06T11:27:08.119Z,100447.14
2018-10-06T11:29:37.184Z,100445.36
2018-10-06T11:32:06.195Z,100441.83
2018-10-06T11:34:35.325Z,100437.54
2018-10-06T11:37:04.517Z,100435.88
2018-10-06T11:39:33.469Z,100428.80
2018-10-06T11:42:02.565Z,100427.59
2018-10-06T11:44:31.732Z,100420.35
2018-10-06T11:47:00.759Z,100422.35
2018-10-06T11:49:29.769Z,100414.88
2018-10-06T11:51:59.360Z,100413.17
2018-10-06T11:54:44.705Z,100406.47
2018-10-06T11:58:02.270Z,100413.17
2018-10-06T12:01:09.075Z,100408.05
2018-10-06T12:03:38.659Z,100401.97
2018-10-06T12:06:07.793Z,100397.09
2018-10-06T12:08:36.807Z,100395.25
2018-10-06T12:11:06.153Z,100393.17
2018-10-06T12:13:35.145Z,100382.72
2018-10-06T12:16:04.509Z,100378.57
2018-10-06T12:18:33.567Z,100381.72
2018-10-06T12:21:02.735Z,100376.75
2018-10-06T12:23:31.688Z,100379.70
2018-10-06T12:26:00.991Z,100377.86
2018-10-06T12:28:30.136Z,100373.34
2018-10-06T12:30:59.145Z,100365.06
2018-10-06T12:33:28.785Z,100355.45
2018-10-06T12:35:57.817Z,100355.92
2018-10-06T12:38:26.906Z,100346.77
2018-10-06T12:40:56.200Z,100339.83
2018-10-06T12:43:26.927Z,100333.98
2018-10-06T12:45:56.308Z,100332.41
2018-10-06T12:48:25.502Z,100329.34
2018-10-06T12:50:54.555Z,100329.59
2018-10-06T12:53:23.772Z,100325.20
2018-10-06T12:55:52.735Z,100317.16
2018-10-06T12:58:21.717Z,100315.94
2018-10-06T13:00:50.947Z,100315.09
2018-10-06T13:03:19.942Z,100317.27
2018-10-06T13:05:49.901Z,100305.33
2018-10-06T13:08:19.069Z,100303.77
2018-10-06T13:10:48.044Z,100296.55
2018-10-06T13:13:17.096Z,100295.22
2018-10-06T13:15:46.173Z,100299.48
2018-10-06T13:18:15.133Z,100299.74
2018-10-06T13:20:44.103Z,100299.38
2018-10-06T13:23:13.177Z,100296.68
2018-10-06T13:25:42.069Z,100291.70
2018-10-06T13:28:11.033Z,100287.53
2018-10-06T13:30:40.094Z,100283.41
2018-10-06T13:33:08.978Z,100280.70
2018-10-06T13:35:37.905Z,100282.78
2018-10-06T13:38:06.950Z,100274.75
2018-10-06T13:40:35.822Z,100276.08
2018-10-06T13:43:04.871Z,100265.95
2018-10-06T13:45:33.789Z,100267.79
2018-10-06T13:48:02.704Z,100264.49
2018-10-06T13:50:31.768Z,100262.06
2018-10-06T13:53:00.926Z,100252.05
2018-10-06T13:55:29.944Z,100257.08
2018-10-06T13:57:58.895Z,100255.13
2018-10-06T14:00:28.090Z,100247.93
2018-10-06T14:02:56.933Z,100250.36
2018-10-06T14:05:25.779Z,100255.97
2018-10-06T14:07:54.715Z,100243.42
2018-10-06T14:10:23.596Z,100247.45
2018-10-06T14:12:52.522Z,100250.23
2018-10-06T14:15:21.993Z,100244.14
2018-10-06T14:17:50.852Z,100240.63
2018-10-06T14:20:19.845Z,100234.03
2018-10-06T14:22:48.826Z,100232.70
2018-10-06T14:25:18.738Z,100229.66
2018-10-06T14:27:47.637Z,100228.44
2018-10-06T14:30:16.760Z,100231.84
2018-10-06T14:32:45.638Z,100229.53
2018-10-06T14:35:14.882Z,100232.59
2018-10-06T14:37:43.969Z,100229.16
2018-10-06T14:40:12.866Z,100224.28
2018-10-06T14:42:41.693Z,100222.70
2018-10-06T14:45:10.741Z,100220.27
2018-10-06T14:47:39.752Z,100220.02
2018-10-06T14:50:08.837Z,100221.25
2018-10-06T14:52:38.154Z,100218.31
2018-10-06T14:55:08.958Z,100218.20
2018-10-06T14:57:38.586Z,100219.06
2018-10-06T15:00:08.083Z,100223.09
2018-10-06T15:02:36.955Z,100215.52
2018-10-06T15:05:06.029Z,100211.13
2018-10-06T15:07:35.636Z,100216.86
2018-10-06T15:10:04.703Z,100217.23
2018-10-06T15:12:33.972Z,100211.02
2018-10-06T15:15:02.902Z,100216.78
2018-10-06T15:17:31.892Z,100217.98
2018-10-06T15:20:01.237Z,100214.92
2018-10-06T15:22:30.217Z,100211.75
2018-10-06T15:24:59.141Z,100208.01
2018-10-06T15:27:28.336Z,100202.64
2018-10-06T15:29:57.280Z,100199.95
2018-10-06T15:32:26.239Z,100199.83
2018-10-06T15:34:55.397Z,100199.46
2018-10-06T15:37:24.308Z,100207.22
2018-10-06T15:39:53.301Z,100205.61
2018-10-06T15:42:22.415Z,100208.85
2018-10-06T15:44:51.279Z,100210.30
2018-10-06T15:47:20.312Z,100208.92
2018-10-06T15:49:49.676Z,100204.02
2018-10-06T15:52:18.609Z,100203.45
2018-10-06T15:54:47.663Z,100200.28
2018-10-06T15:57:16.677Z,100204.97
2018-10-06T15:59:45.539Z,100206.86
2018-10-06T16:02:14.525Z,100205.75
2018-10-06T16:04:43.445Z,100211.28
2018-10-06T16:07:12.470Z,100206.83
2018-10-06T16:09:41.449Z,100211.61
2018-10-06T16:12:10.531Z,100205.47
2018-10-06T16:14:39.444Z,100210.88
2018-10-06T16:17:08.442Z,100206.78
2018-10-06T16:19:37.469Z,100201.49
2018-10-06T16:22:06.722Z,100203.67
2018-10-06T16:24:35.667Z,100208.10
2018-10-06T16:27:04.907Z,100207.18
2018-10-06T16:29:33.831Z,100209.80
2018-10-06T16:32:02.834Z,100211.41
2018-10-06T16:34:32.198Z,100216.61
2018-10-06T16:37:01.110Z,100207.62
2018-10-06T16:39:30.052Z,100206.00
2018-10-06T16:41:59.147Z,100213.27
2018-10-06T16:44:28.144Z,100213.17
2018-10-06T16:46:57.136Z,100210.81
2018-10-06T16:49:26.319Z,100212.80
2018-10-06T16:51:55.323Z,100210.66
2018-10-06T16:54:24.392Z,100214.98
2018-10-06T16:56:53.321Z,100215.26
2018-10-06T16:59:22.313Z,100213.76
2018-10-06T17:01:51.493Z,100216.35
2018-10-06T17:04:20.868Z,100219.31
2018-10-06T17:06:49.837Z,100216.74
2018-10-06T17:09:18.704Z,100216.45
2018-10-06T17:11:47.895Z,100213.23
2018-10-06T17:14:16.858Z,100215.86
2018-10-06T17:16:55.614Z,100213.56
2018-10-06T17:22:43.753Z,100211.86
2018-10-06T17:25:13.130Z,100211.63
2018-10-06T17:27:43.349Z,100217.53
2018-10-06T17:30:12.359Z,100221.88
2018-10-06T17:32:42.417Z,100215.33
2018-10-06T17:35:11.685Z,100216.08
2018-10-06T17:37:40.597Z,100216.18
2018-10-06T17:40:09.948Z,100224.06
2018-10-06T17:42:40.186Z,100215.03
2018-10-06T17:45:09.422Z,100215.06
2018-10-06T17:47:38.418Z,100220.95
2018-10-06T17:50:07.806Z,100224.91
2018-10-06T17:52:36.884Z,100233.34
2018-10-06T17:55:06.180Z,100233.91
2018-10-06T17:57:35.270Z,100233.44
2018-10-06T18:00:04.368Z,100235.15
2018-10-06T18:02:33.492Z,100237.64
2018-10-06T18:05:02.565Z,100239.58
2018-10-06T18:07:31.509Z,100239.40
2018-10-06T18:10:00.468Z,100238.66
2018-10-06T18:12:29.980Z,100239.32
2018-10-06T18:14:59.059Z,100240.27
2018-10-06T18:17:28.105Z,100234.86
2018-10-06T18:19:57.417Z,100237.31
2018-10-06T18:22:26.517Z,100238.05
2018-10-06T18:24:55.714Z,100243.25
2018-10-06T18:27:24.809Z,100236.79
2018-10-06T18:29:53.778Z,100228.91
2018-10-06T18:32:22.913Z,100229.09
2018-10-06T18:34:52.526Z,100234.42
2018-10-06T18:37:21.566Z,100231.92
2018-10-06T18:39:50.721Z,100233.13
2018-10-06T18:42:19.795Z,100243.77
2018-10-06T18:44:48.761Z,100243.62
2018-10-06T18:47:18.107Z,100245.48
2018-10-06T18:49:47.455Z,100250.87
2018-10-06T18:52:16.449Z,100256.72
2018-10-06T18:54:45.723Z,100263.98
2018-10-06T18:57:14.902Z,100257.53
2018-10-06T18:59:44.003Z,100265.09
2018-10-06T19:02:13.080Z,100257.57
2018-10-06T19:04:42.105Z,100255.34
2018-10-06T19:07:11.285Z,100261.36
2018-10-06T19:09:40.333Z,100260.93
2018-10-06T19:12:09.717Z,100261.41
2018-10-06T19:14:38.744Z,100262.97
2018-10-06T19:17:07.789Z,100265.07
2018-10-06T19:19:36.877Z,100266.78
2018-10-06T19:22:06.063Z,100270.30
2018-10-06T19:24:35.069Z,100265.77
2018-10-06T19:27:04.473Z,100265.16
2018-10-06T19:29:33.548Z,100267.91
2018-10-06T19:32:02.568Z,100266.02
2018-10-06T19:34:31.801Z,100263.83
2018-10-06T19:37:00.667Z,100263.77
2018-10-06T19:39:29.607Z,100257.90
2018-10-06T19:41:58.680Z,100270.50
2018-10-06T19:44:27.499Z,100270.02
2018-10-06T19:46:56.795Z,100267.63
2018-10-06T19:49:26.113Z,100270.02
2018-10-06T19:51:55.063Z,100265.32
2018-10-06T19:54:24.175Z,100272.60
2018-10-06T19:56:53.573Z,100266.75
2018-10-06T19:59:22.539Z,100269.47
2018-10-06T20:01:51.811Z,100267.47
2018-10-06T20:04:21.249Z,100268.23
2018-10-06T20:06:50.240Z,100267.37
2018-10-06T20:09:19.344Z,100265.11
2018-10-06T20:12:50.983Z,100266.66
2018-10-06T20:15:20.078Z,100262.48
2018-10-06T20:17:49.163Z,100269.93
2018-10-06T20:20:18.357Z,100262.91
2018-10-06T20:22:47.389Z,100269.69
2018-10-06T20:25:16.351Z,100268.14
2018-10-06T20:27:45.781Z,100267.28
2018-10-06T20:30:14.733Z,100257.87
2018-10-06T20:32:43.897Z,100258.38
2018-10-06T20:35:13.249Z,100254.31
2018-10-06T20:37:42.205Z,100255.47
2018-10-06T20:40:11.463Z,100242.45
2018-10-06T20:42:40.739Z,100243.56
2018-10-06T20:45:09.721Z,100249.88
2018-10-06T20:47:38.911Z,100243.16
2018-10-06T20:50:07.993Z,100240.20
2018-10-06T20:52:37.108Z,100236.05
2018-10-06T20:55:06.148Z,100236.83
2018-10-06T20:57:35.259Z,100239.87
2018-10-06T21:00:04.361Z,100239.47
2018-10-06T21:02:33.365Z,100241.34
2018-10-06T21:05:02.783Z,100238.00
2018-10-06T21:07:31.763Z,100231.27
2018-10-06T21:10:00.853Z,100229.41
2018-10-06T21:12:30.251Z,100230.08
2018-10-06T21:14:59.369Z,100227.44
2018-10-06T21:17:28.390Z,100226.94
2018-10-06T21:19:57.437Z,100227.64
2018-10-06T21:22:26.521Z,100224.97
2018-10-06T21:24:55.618Z,100231.30
2018-10-06T21:27:25.024Z,100234.97
2018-10-06T21:29:54.021Z,100227.73
2018-10-06T21:32:23.026Z,100228.01
2018-10-06T21:34:52.049Z,100219.98
2018-10-06T21:37:21.052Z,100225.20
2018-10-06T21:39:50.173Z,100223.64
2018-10-06T21:42:19.650Z,100220.57
2018-10-06T21:44:48.657Z,100214.38
2018-10-06T21:47:17.663Z,100210.56
2018-10-06T21:49:47.084Z,100212.66
2018-10-06T21:52:16.912Z,100212.81
2018-10-06T21:54:45.925Z,100206.81
2018-10-06T21:57:15.427Z,100205.50
2018-10-06T21:59:44.486Z,100200.52
2018-10-06T22:02:13.433Z,100204.80
2018-10-06T22:04:42.836Z,100205.50
2018-10-06T22:07:11.876Z,100203.31
2018-10-06T22:09:40.927Z,100205.05
2018-10-06T22:12:10.310Z,100205.53
2018-10-06T22:14:39.398Z,100201.51
2018-10-06T22:17:08.847Z,100203.91
2018-10-06T22:19:38.159Z,100203.93
2018-10-06T22:22:07.369Z,100197.13
2018-10-06T22:24:36.536Z,100202.13
2018-10-06T22:27:06.148Z,100203.80
2018-10-06T22:29:35.059Z,100205.72
2018-10-06T22:32:04.169Z,100204.41
2018-10-06T22:34:33.269Z,100210.91
2018-10-06T22:37:02.338Z,100206.87
2018-10-06T22:39:31.395Z,100205.16
2018-10-06T22:42:00.362Z,100198.48
2018-10-06T22:44:29.389Z,100203.31
2018-10-06T22:46:58.413Z,100202.39
2018-10-06T22:49:27.903Z,100205.24
2018-10-06T22:51:56.948Z,100204.64
2018-10-06T22:54:26.020Z,100202.13
2018-10-06T22:56:55.170Z,100197.31
2018-10-06T22:59:24.164Z,100210.20
2018-10-06T23:01:53.336Z,100211.70
2018-10-06T23:04:22.776Z,100204.38
2018-10-06T23:06:51.840Z,100204.44
2018-10-06T23:09:20.827Z,100206.23
2018-10-06T23:11:50.161Z,100205.48
2018-10-06T23:14:19.163Z,100202.73
2018-10-06T23:16:48.239Z,100204.30
2018-10-06T23:19:17.363Z,100207.09
2018-10-06T23:23:15.639Z,100199.49
2018-10-06T23:25:44.532Z,100201.42
2018-10-06T23:28:13.372Z,100196.37
2018-10-06T23:30:43.076Z,100197.38
2018-10-06T23:33:12.481Z,100198.77
2018-10-06T23:35:41.546Z,100195.72
2018-10-06T23:38:10.523Z,100190.44
2018-10-06T23:40:39.866Z,100185.59
2018-10-06T23:43:08.735Z,100184.70
2018-10-06T23:45:37.575Z,100185.67
2018-10-06T23:48:06.761Z,100185.16
2018-10-06T23:50:35.584Z,100180.65
2018-10-06T23:53:04.488Z,100175.77
2018-10-06T23:55:33.408Z,100169.16
2018-10-06T23:58:02.417Z,100167.38
